Time;durP1;ratioP1;P1;durP2;ratioP2;P2;SDS_P1;SDS_P2;PMS_P1;PMS_P2;Temp;Humidity;BMP_temperature;BMP_pressure;BME280_temperature;BME280_humidity;BME280_pressure;Samples;Min_cycle;Max_cycle;Signal;HPM_P1;HPM_P2
2022/08/28 00:00:23;;;;;;;30.50;20.83;;;;;;;21.39;68.60;97408.72;5052528;28;20847;-71
2022/08/28 00:02:49;;;;;;;25.73;19.20;;;;;;;21.41;68.79;97411.97;5053173;28;20232;-73
2022/08/28 00:05:17;;;;;;;23.23;20.00;;;;;;;21.46;69.03;97404.13;5061124;28;20835;-71
2022/08/28 00:07:42;;;;;;;24.50;19.50;;;;;;;21.48;68.88;97407.41;5052055;28;20273;-70
2022/08/28 00:10:08;;;;;;;24.83;19.10;;;;;;;21.49;69.03;97404.50;5052644;28;20928;-71
2022/08/28 00:12:35;;;;;;;24.13;18.70;;;;;;;21.48;68.87;97404.72;5060506;28;20523;-71
2022/08/28 00:15:03;;;;;;;22.80;19.63;;;;;;;21.42;68.95;97413.63;5052439;28;20425;-71
2022/08/28 00:17:29;;;;;;;25.83;19.60;;;;;;;21.35;69.62;97407.50;5043778;28;20879;-70
2022/08/28 00:19:54;;;;;;;24.70;19.00;;;;;;;21.36;69.41;97407.28;5052531;28;20544;-71
2022/08/28 00:22:20;;;;;;;21.97;19.60;;;;;;;21.38;69.56;97415.88;5060384;28;20600;-72
2022/08/28 00:24:46;;;;;;;24.00;19.23;;;;;;;21.41;69.42;97417.31;5052808;28;20178;-71
2022/08/28 00:29:56;;;;;;;20.60;17.60;;;;;;;21.44;69.27;97415.03;5056912;28;20414;-72
2022/08/28 00:32:22;;;;;;;23.43;19.10;;;;;;;21.44;69.45;97417.69;5052271;28;20444;-71
2022/08/28 00:34:48;;;;;;;23.90;20.73;;;;;;;21.46;69.18;97409.47;5052265;28;20179;-71
2022/08/28 00:37:14;;;;;;;23.03;19.17;;;;;;;21.48;69.39;97413.53;5051449;28;20461;-70
2022/08/28 00:39:39;;;;;;;22.03;19.40;;;;;;;21.47;69.43;97414.59;5056911;28;20875;-71
2022/08/28 00:42:05;;;;;;;26.30;19.50;;;;;;;21.48;69.39;97418.06;5052396;28;20269;-73
2022/08/28 00:44:30;;;;;;;23.30;19.70;;;;;;;21.51;69.39;97414.13;5054300;28;20237;-70
2022/08/28 00:46:57;;;;;;;21.67;19.37;;;;;;;21.51;69.56;97406.13;5056263;28;20294;-71
2022/08/28 00:49:25;;;;;;;23.63;20.10;;;;;;;21.47;69.49;97403.09;5051971;28;20724;-70
2022/08/28 00:52:07;;;;;;;24.13;20.50;;;;;;;21.45;69.70;97410.50;5051364;28;20504;-71
2022/08/28 00:54:43;;;;;;;20.47;18.10;;;;;;;21.47;69.67;97408.44;5054841;28;20511;-71
2022/08/28 00:57:13;;;;;;;20.70;18.53;;;;;;;21.51;69.69;97406.13;5052466;28;20448;-70
2022/08/28 00:59:38;;;;;;;19.93;17.93;;;;;;;21.51;69.69;97404.31;5050538;28;20453;-71
2022/08/28 01:02:05;;;;;;;20.27;18.17;;;;;;;21.54;69.55;97395.03;5048337;28;20421;-71
2022/08/28 01:04:31;;;;;;;21.40;18.87;;;;;;;21.52;69.71;97394.44;5051690;28;20179;-70
2022/08/28 01:06:58;;;;;;;25.53;18.77;;;;;;;21.54;69.84;97401.22;5050019;28;20441;-70
2022/08/28 01:09:27;;;;;;;21.40;18.97;;;;;;;21.55;69.66;97394.81;5051322;28;20188;-70
2022/08/28 01:11:57;;;;;;;22.40;18.30;;;;;;;21.55;69.69;97402.81;5049134;28;20426;-71
2022/08/28 01:14:23;;;;;;;26.20;19.60;;;;;;;21.55;69.93;97397.50;5049993;28;20520;-70
2022/08/28 01:16:54;;;;;;;24.43;19.20;;;;;;;21.52;70.12;97403.28;5051137;28;20528;-70
2022/08/28 01:19:25;;;;;;;21.27;18.87;;;;;;;21.56;70.04;97406.31;5050034;28;20214;-71
2022/08/28 01:21:54;;;;;;;18.93;17.13;;;;;;;21.57;70.10;97405.28;5058514;28;20455;-71
2022/08/28 01:24:19;;;;;;;23.07;18.63;;;;;;;21.56;70.06;97404.44;5050928;28;20487;-71
2022/08/28 01:26:46;;;;;;;21.03;18.97;;;;;;;21.57;70.29;97408.75;5049413;28;20437;-69
2022/08/28 01:29:11;;;;;;;23.30;18.60;;;;;;;21.57;70.51;97400.75;5033144;28;20839;-70
2022/08/28 01:31:38;;;;;;;25.60;18.60;;;;;;;21.56;70.59;97404.44;5050384;28;20513;-70
2022/08/28 01:34:05;;;;;;;27.77;17.37;;;;;;;21.56;70.42;97404.44;5033522;28;20437;-70
2022/08/28 01:36:30;;;;;;;21.20;18.10;;;;;;;21.50;70.56;97405.34;5041206;28;20457;-70
2022/08/28 01:39:10;;;;;;;23.20;17.70;;;;;;;21.49;70.67;97403.69;5051078;28;20949;-70
2022/08/28 01:41:40;;;;;;;22.67;17.33;;;;;;;21.55;70.39;97396.69;5048938;28;20190;-70
2022/08/28 01:44:05;;;;;;;19.57;16.70;;;;;;;21.55;70.15;97397.50;5050948;28;20436;-69
2022/08/28 01:46:31;;;;;;;23.97;18.47;;;;;;;21.48;70.12;97397.53;5057051;28;20446;-70
2022/08/28 01:48:56;;;;;;;22.50;18.47;;;;;;;21.46;70.43;97393.47;5051542;28;20245;-71
2022/08/28 01:51:22;;;;;;;25.37;17.43;;;;;;;21.49;70.00;97398.38;5051067;28;20183;-70
2022/08/28 01:53:47;;;;;;;19.90;16.60;;;;;;;21.48;70.00;97396.75;5051172;28;20526;-71
2022/08/28 01:56:15;;;;;;;20.93;18.10;;;;;;;21.41;69.99;97402.13;5050485;28;20214;-71
2022/08/28 01:58:40;;;;;;;20.07;17.80;;;;;;;21.46;69.87;97398.81;5055634;28;20570;-70
2022/08/28 02:01:10;;;;;;;19.30;17.43;;;;;;;21.41;70.04;97404.78;5053823;28;20432;-73
2022/08/28 02:03:36;;;;;;;20.83;17.30;;;;;;;21.44;69.78;97401.69;5051033;28;20191;-72
2022/08/28 02:06:01;;;;;;;21.17;16.60;;;;;;;21.42;69.82;97403.75;5050851;28;20437;-71
2022/08/28 02:08:27;;;;;;;21.17;17.67;;;;;;;21.41;69.83;97406.66;5050032;28;20610;-70
2022/08/28 02:10:52;;;;;;;20.10;17.20;;;;;;;21.36;69.81;97404.59;5050262;28;20270;-71
2022/08/28 02:13:18;;;;;;;25.27;16.30;;;;;;;21.33;69.62;97413.06;5050770;28;20286;-70
2022/08/28 02:15:44;;;;;;;19.60;16.50;;;;;;;21.32;69.72;97409.56;5050545;28;20187;-71
2022/08/28 02:18:10;;;;;;;18.87;16.03;;;;;;;21.29;70.10;97410.03;5049850;28;20302;-71
2022/08/28 02:20:36;;;;;;;22.60;17.40;;;;;;;21.31;69.81;97412.47;5053847;28;20991;-71
2022/08/28 02:23:02;;;;;;;20.90;16.90;;;;;;;21.31;70.16;97412.47;5062519;28;20430;-70
2022/08/28 02:25:28;;;;;;;23.83;16.17;;;;;;;21.30;70.24;97410.81;5049141;28;20178;-71
2022/08/28 02:27:54;;;;;;;20.27;18.10;;;;;;;21.29;70.39;97403.84;5046096;28;20203;-70
2022/08/28 02:30:20;;;;;;;21.20;17.10;;;;;;;21.25;70.81;97413.31;5057337;28;20802;-71
2022/08/28 02:32:46;;;;;;;19.20;17.30;;;;;;;21.26;70.70;97402.44;5050787;28;20605;-71
2022/08/28 02:35:15;;;;;;;18.37;16.50;;;;;;;21.29;70.72;97415.34;5050321;28;20424;-70
2022/08/28 02:37:43;;;;;;;19.93;17.00;;;;;;;21.30;71.04;97410.81;5049587;28;20678;-70
2022/08/28 02:40:09;;;;;;;18.90;17.00;;;;;;;21.33;70.68;97411.19;5050210;28;21177;-71
2022/08/28 02:42:35;;;;;;;20.00;17.90;;;;;;;21.33;71.02;97415.72;5054847;28;20508;-70
2022/08/28 02:45:00;;;;;;;20.53;18.33;;;;;;;21.27;71.08;97412.09;5059803;28;20428;-71
2022/08/28 02:47:26;;;;;;;20.57;17.43;;;;;;;21.26;71.43;97413.09;5050112;28;20217;-70
2022/08/28 02:49:51;;;;;;;19.90;17.80;;;;;;;21.29;71.43;97406.53;5050563;28;20203;-70
2022/08/28 02:52:18;;;;;;;21.30;17.80;;;;;;;21.29;71.28;97406.53;5051228;28;20548;-71
2022/08/28 02:54:45;;;;;;;18.73;16.93;;;;;;;21.32;71.39;97412.22;5052599;28;20187;-71
2022/08/28 02:57:11;;;;;;;20.70;17.93;;;;;;;21.32;71.16;97414.91;5053307;28;20441;-71
2022/08/28 02:59:37;;;;;;;18.80;16.53;;;;;;;21.37;71.11;97411.56;5054158;28;20457;-71
2022/08/28 03:02:03;;;;;;;19.90;16.10;;;;;;;21.40;71.17;97405.00;5054257;28;20179;-71
2022/08/28 03:04:32;;;;;;;20.70;17.20;;;;;;;21.43;70.97;97409.88;5054257;28;20441;-71
2022/08/28 03:06:58;;;;;;;19.70;17.70;;;;;;;21.47;71.05;97413.75;5060792;28;20444;-72
2022/08/28 03:09:23;;;;;;;20.90;17.83;;;;;;;21.49;71.38;97404.50;5055091;28;21689;-71
2022/08/28 03:11:52;;;;;;;20.43;16.57;;;;;;;21.51;71.22;97411.47;5053782;28;20179;-70
2022/08/28 03:14:19;;;;;;;18.60;16.77;;;;;;;21.53;71.38;97415.56;5053986;28;20587;-70
2022/08/28 03:16:44;;;;;;;19.13;17.13;;;;;;;21.56;71.26;97404.44;5053037;28;20444;-70
2022/08/28 03:19:10;;;;;;;22.90;17.17;;;;;;;21.59;71.11;97401.38;5053901;28;20441;-70
2022/08/28 03:21:35;;;;;;;20.83;17.57;;;;;;;21.62;71.34;97410.78;5061883;28;20175;-69
2022/08/28 03:24:01;;;;;;;21.97;18.10;;;;;;;21.65;71.50;97405.03;5053748;28;20179;-71
2022/08/28 03:26:27;;;;;;;18.93;17.10;;;;;;;21.67;71.47;97407.50;5060837;28;20202;-70
2022/08/28 03:28:53;;;;;;;21.60;18.40;;;;;;;21.68;71.31;97414.44;5053742;28;20545;-70
2022/08/28 03:31:22;;;;;;;24.27;17.40;;;;;;;21.67;71.47;97410.16;5052120;28;20430;-70
2022/08/28 03:33:48;;;;;;;18.97;15.67;;;;;;;21.67;71.56;97415.50;5053511;28;20452;-70
2022/08/28 03:36:17;;;;;;;20.17;15.50;;;;;;;21.58;71.18;97413.06;5052847;28;20487;-71
2022/08/28 03:38:42;;;;;;;18.87;16.00;;;;;;;21.61;71.38;97406.53;5051711;28;20857;-71
2022/08/28 03:41:13;;;;;;;17.97;16.17;;;;;;;21.63;71.28;97421.25;5052840;28;20425;-71
2022/08/28 03:43:39;;;;;;;22.83;16.57;;;;;;;21.59;71.60;97412.06;5053288;28;20187;-72
2022/08/28 03:46:05;;;;;;;18.70;16.20;;;;;;;21.58;71.50;97413.06;5059435;28;20454;-70
2022/08/28 03:48:33;;;;;;;17.90;16.00;;;;;;;21.66;71.57;97413.88;5052441;28;20410;-69
2022/08/28 03:50:59;;;;;;;17.90;16.00;;;;;;;21.66;71.48;97414.66;5053008;28;20425;-70
2022/08/28 03:53:27;;;;;;;20.43;16.87;;;;;;;21.69;71.52;97413.41;5053094;28;20425;-71
2022/08/28 03:55:54;;;;;;;22.60;18.33;;;;;;;21.69;71.40;97419.56;5052980;28;20938;-71
2022/08/28 03:58:26;;;;;;;20.17;16.00;;;;;;;21.66;71.80;97421.88;5051990;28;20492;-70
2022/08/28 04:00:51;;;;;;;18.63;16.63;;;;;;;21.66;71.86;97424.53;5044069;28;20436;-71
2022/08/28 04:03:17;;;;;;;17.77;15.87;;;;;;;21.69;71.81;97421.41;5069213;28;20428;-71
2022/08/28 04:05:44;;;;;;;17.87;15.43;;;;;;;21.70;71.74;97415.03;5069122;28;20522;-70
2022/08/28 04:08:16;;;;;;;19.77;17.20;;;;;;;21.72;71.80;97418.31;5067479;28;20206;-71
2022/08/28 04:10:43;;;;;;;19.90;17.07;;;;;;;21.74;71.75;97418.91;5046658;28;20774;-72
2022/08/28 04:13:09;;;;;;;25.00;16.50;;;;;;;21.73;71.86;97419.94;5052967;28;20835;-70
2022/08/28 04:15:35;;;;;;;19.40;17.30;;;;;;;21.73;71.92;97428.78;5053405;28;20422;-71
2022/08/28 04:18:00;;;;;;;20.23;16.03;;;;;;;21.73;71.99;97422.59;5052504;28;20461;-71
2022/08/28 04:20:26;;;;;;;18.27;16.47;;;;;;;21.71;72.09;97422.00;5047769;28;20206;-71
2022/08/28 04:22:52;;;;;;;18.47;15.90;;;;;;;21.73;72.14;97425.28;5060861;28;20190;-71
2022/08/28 04:25:18;;;;;;;20.33;17.47;;;;;;;21.74;71.83;97421.56;5052949;28;20422;-71
2022/08/28 04:27:43;;;;;;;21.67;17.10;;;;;;;21.70;72.17;97420.38;5051919;28;20199;-71
2022/08/28 04:30:09;;;;;;;18.50;16.10;;;;;;;21.69;72.38;97419.56;5055836;28;20179;-72
2022/08/28 04:32:36;;;;;;;19.23;16.93;;;;;;;21.72;72.68;97423.63;5067765;28;20252;-72
2022/08/28 04:35:03;;;;;;;20.70;18.43;;;;;;;21.74;72.29;97419.72;5072290;28;20544;-71
2022/08/28 04:37:29;;;;;;;21.30;18.27;;;;;;;21.74;72.40;97426.91;5066538;28;20456;-71
2022/08/28 04:39:55;;;;;;;21.90;18.70;;;;;;;21.74;72.59;97424.25;5067553;28;20445;-70
2022/08/28 04:42:20;;;;;;;23.30;19.70;;;;;;;21.77;72.44;97426.47;5071340;28;20440;-71
2022/08/28 04:44:46;;;;;;;23.77;19.20;;;;;;;21.77;72.44;97424.63;5067908;28;20179;-72
2022/08/28 04:47:11;;;;;;;21.27;18.10;;;;;;;21.81;72.56;97422.31;5059422;28;20207;-70
2022/08/28 04:49:37;;;;;;;30.17;19.10;;;;;;;21.81;72.47;97421.53;5064828;28;20182;-71
2022/08/28 04:52:03;;;;;;;23.10;19.10;;;;;;;21.81;72.60;97433.00;5071806;28;20240;-72
2022/08/28 04:54:31;;;;;;;28.17;19.30;;;;;;;21.81;72.36;97427.66;5055228;28;20285;-70
2022/08/28 04:56:57;;;;;;;22.63;19.03;;;;;;;21.80;72.56;97431.34;5057015;28;20442;-70
2022/08/28 04:59:22;;;;;;;27.27;19.90;;;;;;;21.80;72.35;97436.69;5069547;28;20579;-70
2022/08/28 05:01:48;;;;;;;24.60;19.30;;;;;;;21.82;72.68;97434.63;5062106;28;20174;-70
2022/08/28 05:04:13;;;;;;;26.67;20.30;;;;;;;21.85;72.29;97438.72;5056904;28;20655;-71
2022/08/28 05:06:44;;;;;;;24.93;18.87;;;;;;;21.82;72.26;97431.97;5070741;28;20206;-70
2022/08/28 05:09:12;;;;;;;27.80;18.87;;;;;;;21.83;72.70;97436.25;5064108;28;20630;-70
2022/08/28 05:11:38;;;;;;;22.40;19.57;;;;;;;21.86;72.51;97433.16;5071187;28;20409;-72
2022/08/28 05:14:05;;;;;;;28.40;18.30;;;;;;;21.88;72.46;97439.09;5063121;28;20435;-69
2022/08/28 05:16:33;;;;;;;21.00;18.03;;;;;;;21.87;72.46;97442.78;5069224;28;20202;-71
2022/08/28 05:18:59;;;;;;;19.90;17.43;;;;;;;21.86;72.31;97441.16;5055717;28;20450;-71
2022/08/28 05:21:25;;;;;;;23.00;16.90;;;;;;;21.86;72.64;97451.84;5062498;28;20428;-71
2022/08/28 05:23:55;;;;;;;21.07;17.80;;;;;;;21.86;72.54;97443.81;5071640;28;20918;-71
2022/08/28 05:26:21;;;;;;;25.40;18.47;;;;;;;21.87;72.81;97445.47;5059001;28;20229;-71
2022/08/28 05:28:47;;;;;;;22.70;18.20;;;;;;;21.89;72.46;97447.91;5071189;28;20911;-70
2022/08/28 05:31:19;;;;;;;23.57;19.13;;;;;;;21.87;72.45;97442.78;5061653;28;20211;-71
2022/08/28 05:33:49;;;;;;;21.30;18.63;;;;;;;21.87;72.45;97444.63;5061618;28;20484;-71
2022/08/28 05:36:16;;;;;;;24.30;19.30;;;;;;;21.85;72.10;97444.88;5066786;28;20467;-70
2022/08/28 05:38:43;;;;;;;25.50;17.93;;;;;;;21.87;72.30;97453.47;5065700;28;20484;-70
2022/08/28 05:41:08;;;;;;;21.07;18.10;;;;;;;21.88;72.35;97452.44;5071104;28;20524;-70
2022/08/28 05:43:34;;;;;;;25.60;18.07;;;;;;;21.88;72.26;97447.09;5063665;28;20509;-70
2022/08/28 05:46:09;;;;;;;22.43;17.67;;;;;;;21.86;72.41;97449.16;5056593;28;20645;-71
2022/08/28 05:48:35;;;;;;;22.63;17.83;;;;;;;21.89;72.41;97448.72;5070313;28;20416;-68
2022/08/28 05:51:09;;;;;;;25.20;18.90;;;;;;;21.90;72.39;97455.72;5070980;28;20421;-71
2022/08/28 05:53:40;;;;;;;26.40;18.80;;;;;;;21.91;72.36;97452.00;5066284;28;20425;-70
2022/08/28 05:56:10;;;;;;;21.30;17.53;;;;;;;21.94;72.16;97456.06;5070681;28;20435;-70
2022/08/28 05:58:36;;;;;;;23.60;20.00;;;;;;;21.93;72.28;97457.09;5068979;28;20449;-70
2022/08/28 06:01:15;;;;;;;24.23;18.60;;;;;;;21.89;72.43;97470.06;5052085;28;20424;-70
2022/08/28 06:03:43;;;;;;;25.40;18.60;;;;;;;21.93;72.23;97457.09;5048725;28;20879;-71
2022/08/28 06:06:10;;;;;;;23.83;19.23;;;;;;;21.94;72.53;97462.22;5067724;28;20421;-70
2022/08/28 06:08:36;;;;;;;22.93;19.50;;;;;;;21.96;72.42;97466.53;5059899;28;20904;-71
2022/08/28 06:11:04;;;;;;;22.00;17.80;;;;;;;21.96;72.52;97470.03;5048173;28;20466;-70
2022/08/28 06:13:30;;;;;;;26.67;18.80;;;;;;;21.96;72.48;97466.53;5062624;28;20409;-71
2022/08/28 06:15:55;;;;;;;23.70;19.50;;;;;;;21.94;72.47;97464.88;5070720;28;20425;-70
2022/08/28 06:18:21;;;;;;;26.77;19.40;;;;;;;21.91;72.30;97469.84;5069743;28;20795;-70
2022/08/28 06:20:47;;;;;;;23.30;18.93;;;;;;;21.89;72.45;97464.75;5071072;28;20223;-71
2022/08/28 06:23:15;;;;;;;22.20;19.03;;;;;;;21.93;72.73;97468.59;5062442;28;20265;-71
2022/08/28 06:25:45;;;;;;;28.63;21.27;;;;;;;21.97;72.50;97468.97;5070929;28;20183;-70
2022/08/28 06:28:12;;;;;;;25.80;19.87;;;;;;;21.99;72.54;97474.09;5071989;28;20927;-71
2022/08/28 06:30:38;;;;;;;21.47;18.67;;;;;;;22.01;72.24;97475.50;5074569;28;20413;-71
2022/08/28 06:33:04;;;;;;;25.47;18.03;;;;;;;22.03;72.43;97477.97;5074805;28;20523;-70
2022/08/28 06:35:30;;;;;;;24.13;18.40;;;;;;;22.01;71.99;97478.16;5074607;28;20454;-70
2022/08/28 06:37:59;;;;;;;23.00;16.70;;;;;;;22.03;71.88;97483.28;5070233;28;20453;-71
2022/08/28 06:40:25;;;;;;;34.43;19.00;;;;;;;22.08;71.89;97478.09;5056326;28;20301;-70
2022/08/28 06:42:51;;;;;;;25.03;17.13;;;;;;;22.08;71.96;97480.78;5074520;28;20793;-70
2022/08/28 06:45:16;;;;;;;25.87;18.47;;;;;;;22.12;71.75;97486.47;5066301;28;20426;-70
2022/08/28 06:47:42;;;;;;;23.63;17.40;;;;;;;22.13;71.50;97488.94;5073761;28;20288;-71
2022/08/28 06:50:08;;;;;;;20.23;16.30;;;;;;;22.13;71.52;97494.28;5074160;28;20182;-70
2022/08/28 06:52:33;;;;;;;23.40;17.07;;;;;;;22.15;71.37;97491.38;5074323;28;20190;-70
2022/08/28 06:54:59;;;;;;;18.80;15.67;;;;;;;22.17;71.02;97486.66;5074567;28;20427;-70
2022/08/28 06:57:25;;;;;;;23.80;16.67;;;;;;;22.22;71.22;97492.16;5073149;28;20610;-71
2022/08/28 06:59:57;;;;;;;18.70;14.77;;;;;;;22.25;70.81;97492.53;5070992;28;20253;-70
2022/08/28 07:02:22;;;;;;;20.03;16.07;;;;;;;22.28;70.73;97495.78;5062184;28;20590;-70
2022/08/28 07:04:52;;;;;;;18.20;16.30;;;;;;;22.29;70.38;97500.91;5068748;28;20425;-70
2022/08/28 07:07:18;;;;;;;19.77;16.60;;;;;;;22.33;70.27;97498.59;5073019;28;20203;-68
2022/08/28 07:09:44;;;;;;;18.40;14.83;;;;;;;22.38;70.36;97498.75;5064439;28;20450;-71
2022/08/28 07:12:13;;;;;;;20.10;16.07;;;;;;;22.44;70.19;97508.56;5068675;28;20424;-71
2022/08/28 07:14:38;;;;;;;20.63;15.60;;;;;;;22.48;70.06;97504.44;5073729;28;20422;-70
2022/08/28 07:17:06;;;;;;;19.37;15.10;;;;;;;22.53;69.87;97509.94;5073005;28;20437;-71
2022/08/28 07:19:31;;;;;;;18.97;15.93;;;;;;;22.55;69.74;97517.72;5073724;28;20206;-70
2022/08/28 07:21:57;;;;;;;19.97;15.03;;;;;;;22.55;69.28;97518.56;5065788;28;20826;-70
2022/08/28 07:24:23;;;;;;;18.73;15.80;;;;;;;22.57;69.14;97514.81;5073417;28;20303;-71
2022/08/28 07:26:48;;;;;;;27.90;15.50;;;;;;;22.63;68.80;97509.41;5072795;28;20213;-70
2022/08/28 07:29:14;;;;;;;20.20;15.67;;;;;;;22.66;68.56;97510.81;5073235;28;20601;-69
2022/08/28 07:31:43;;;;;;;18.93;14.87;;;;;;;22.69;68.68;97507.69;5073803;28;20183;-72
2022/08/28 07:34:10;;;;;;;18.23;15.30;;;;;;;22.73;68.51;97503.53;5073343;28;20191;-72
2022/08/28 07:36:36;;;;;;;21.60;14.83;;;;;;;22.77;68.62;97515.44;5072573;28;21410;-71
2022/08/28 07:39:01;;;;;;;21.33;15.10;;;;;;;22.83;68.57;97517.19;5066890;28;20452;-72
2022/08/28 07:41:30;;;;;;;26.17;15.30;;;;;;;22.88;68.10;97521.06;5057197;28;20680;-71
2022/08/28 07:46:41;;;;;;;19.50;14.63;;;;;;;22.94;67.22;97528.16;5061039;28;20441;-71
2022/08/28 07:49:07;;;;;;;14.97;12.70;;;;;;;22.96;67.32;97528.75;5069769;28;20470;-70
2022/08/28 07:51:33;;;;;;;19.97;14.27;;;;;;;23.00;66.75;97535.28;5073267;28;20846;-70
2022/08/28 07:53:59;;;;;;;15.80;12.47;;;;;;;23.01;66.40;97532.38;5072993;28;20412;-70
2022/08/28 07:56:28;;;;;;;15.57;13.67;;;;;;;23.06;65.94;97538.91;5072288;28;20210;-70
2022/08/28 07:58:55;;;;;;;17.20;12.67;;;;;;;23.09;65.80;97533.94;5073083;28;20845;-71
2022/08/28 08:01:20;;;;;;;15.23;12.80;;;;;;;23.12;65.61;97538.84;5072878;28;20424;-71
2022/08/28 08:03:46;;;;;;;15.57;11.50;;;;;;;23.19;65.40;97538.75;5062482;28;20433;-70
2022/08/28 08:06:12;;;;;;;14.20;12.13;;;;;;;23.28;65.49;97541.97;5053905;28;20217;-70
2022/08/28 08:08:37;;;;;;;19.07;14.77;;;;;;;23.34;65.04;97540.25;5071831;28;20175;-70
2022/08/28 08:11:06;;;;;;;21.33;13.70;;;;;;;23.40;64.04;97542.81;5055545;28;20785;-71
2022/08/28 08:13:33;;;;;;;15.23;12.17;;;;;;;23.46;63.70;97541.09;5072794;28;20193;-72
2022/08/28 08:16:07;;;;;;;15.57;11.50;;;;;;;23.51;63.96;97545.75;5072736;28;20931;-71
2022/08/28 08:18:33;;;;;;;14.50;11.97;;;;;;;23.56;63.25;97544.03;5056351;28;20458;-71
2022/08/28 08:20:59;;;;;;;14.20;12.40;;;;;;;23.63;63.21;97549.28;5065019;28;20544;-70
2022/08/28 08:23:25;;;;;;;14.93;12.63;;;;;;;23.69;63.10;97553.72;5071558;28;20189;-69
2022/08/28 08:26:05;;;;;;;17.17;13.27;;;;;;;23.76;62.64;97565.16;5072400;28;20908;-70
2022/08/28 08:28:33;;;;;;;13.50;12.10;;;;;;;23.85;62.56;97557.63;5055772;28;20178;-69
2022/08/28 08:31:18;;;;;;;15.00;12.77;;;;;;;23.93;62.20;97561.81;5072329;28;20432;-70
2022/08/28 08:33:49;;;;;;;14.03;12.57;;;;;;;24.00;61.74;97562.56;5072016;28;20444;-71
2022/08/28 08:36:17;;;;;;;14.70;13.30;;;;;;;24.03;61.71;97559.41;5071757;28;20441;-72
2022/08/28 08:38:43;;;;;;;19.50;11.83;;;;;;;24.06;61.53;97567.00;5066887;28;20551;-71
2022/08/28 08:41:48;;;;;;;13.00;10.80;;;;;;;24.12;61.33;97567.94;5054770;28;20458;-71
2022/08/28 08:44:39;;;;;;;14.87;12.53;;;;;;;24.19;61.33;97570.50;5072091;28;20202;-70
2022/08/28 08:47:08;;;;;;;15.87;13.37;;;;;;;24.20;60.78;97564.91;5063304;28;20453;-72
2022/08/28 08:49:36;;;;;;;13.83;12.40;;;;;;;24.27;60.39;97577.34;5072007;28;20920;-70
2022/08/28 08:52:17;;;;;;;15.20;11.30;;;;;;;24.31;60.29;97565.97;5066495;28;20430;-70
2022/08/28 08:54:59;;;;;;;12.30;11.00;;;;;;;24.36;60.16;97578.66;5064498;28;20433;-70
2022/08/28 08:57:26;;;;;;;16.57;13.17;;;;;;;24.42;60.05;97584.94;5069598;28;20436;-69
2022/08/28 08:59:51;;;;;;;12.80;11.50;;;;;;;24.38;59.71;97576.56;5070521;28;20514;-70
2022/08/28 09:02:21;;;;;;;12.17;10.70;;;;;;;24.47;60.11;97585.03;5061119;28;20436;-70
2022/08/28 09:04:51;;;;;;;12.17;10.87;;;;;;;24.55;60.02;97584.72;5070242;28;20189;-71
2022/08/28 09:07:20;;;;;;;12.47;11.27;;;;;;;24.67;60.06;97587.38;5069377;28;20468;-70
2022/08/28 09:09:49;;;;;;;15.77;11.60;;;;;;;24.78;59.49;97588.44;5058365;28;20430;-70
2022/08/28 09:12:21;;;;;;;12.43;11.00;;;;;;;24.84;59.12;97593.69;5067927;28;20421;-70
2022/08/28 09:15:08;;;;;;;11.93;10.73;;;;;;;24.88;58.87;97585.97;5058457;28;20509;-72
2022/08/28 09:17:46;;;;;;;12.83;11.07;;;;;;;24.95;58.67;97589.34;5057137;28;20810;-71
2022/08/28 09:20:19;;;;;;;10.93;9.60;;;;;;;25.05;58.59;97585.25;5073818;28;20461;-71
2022/08/28 09:22:46;;;;;;;11.27;10.03;;;;;;;25.22;58.08;97588.81;5063048;28;20858;-72
2022/08/28 09:25:33;;;;;;;12.70;10.20;;;;;;;25.36;57.58;97583.19;5070616;28;20432;-72
2022/08/28 09:28:07;;;;;;;12.53;9.60;;;;;;;25.72;57.26;97595.44;5049098;28;20834;-71
2022/08/28 09:30:34;;;;;;;12.27;9.00;;;;;;;26.02;55.92;97590.81;5072645;28;20413;-72
2022/08/28 09:33:00;;;;;;;12.33;10.60;;;;;;;26.23;55.14;97583.94;5063735;28;20425;-71
2022/08/28 09:35:29;;;;;;;12.50;8.13;;;;;;;26.53;54.38;97588.13;5072936;28;20421;-71
2022/08/28 09:37:55;;;;;;;10.60;9.57;;;;;;;26.73;53.57;97592.19;5069113;28;21017;-71
2022/08/28 09:40:21;;;;;;;10.60;7.80;;;;;;;26.80;53.42;97590.16;5053976;28;20494;-71
2022/08/28 09:43:27;;;;;;;20.77;8.83;;;;;;;26.79;53.14;97588.53;5074454;28;20413;-71
2022/08/28 09:46:03;;;;;;;11.57;8.70;;;;;;;26.94;52.68;97593.31;5067567;28;20239;-71
2022/08/28 09:48:43;;;;;;;14.70;8.17;;;;;;;27.19;51.89;97587.44;5066751;28;20516;-71
2022/08/28 09:51:09;;;;;;;11.50;7.60;;;;;;;27.44;50.11;97586.94;5071173;28;20432;-72
2022/08/28 09:53:50;;;;;;;11.83;6.93;;;;;;;27.79;50.18;97581.34;5072935;28;20998;-72
2022/08/28 09:56:29;;;;;;;11.40;7.60;;;;;;;28.15;49.10;97589.78;5072479;28;20436;-72
2022/08/28 09:58:58;;;;;;;11.70;9.10;;;;;;;28.31;46.39;97588.00;5066520;28;20457;-71
2022/08/28 10:01:45;;;;;;;9.77;7.80;;;;;;;28.71;46.97;97586.66;5063546;28;20425;-71
2022/08/28 10:04:36;;;;;;;8.63;7.50;;;;;;;28.76;45.64;97583.19;5071916;28;20428;-72
2022/08/28 10:07:05;;;;;;;8.90;7.60;;;;;;;28.67;46.11;97591.75;5060416;28;20455;-72
2022/08/28 10:09:53;;;;;;;10.97;7.07;;;;;;;28.49;46.38;97594.84;5062849;28;20454;-70
2022/08/28 10:12:30;;;;;;;7.50;6.80;;;;;;;28.34;46.46;97585.63;5066913;28;20424;-70
2022/08/28 10:15:02;;;;;;;15.03;8.87;;;;;;;28.19;47.25;97589.00;5071019;28;20431;-70
2022/08/28 10:17:27;;;;;;;11.60;7.10;;;;;;;28.49;47.13;97584.91;5069995;28;20795;-72
2022/08/28 10:20:16;;;;;;;7.70;6.90;;;;;;;28.75;45.96;97581.56;5070963;28;20444;-71
2022/08/28 10:23:00;;;;;;;9.57;7.13;;;;;;;28.82;45.42;97587.56;5057964;28;20273;-71
2022/08/28 10:25:48;;;;;;;11.80;6.67;;;;;;;28.99;45.77;97586.53;5070743;28;20421;-71
2022/08/28 10:28:48;;;;;;;10.87;6.77;;;;;;;29.30;44.60;97595.56;5070027;28;20436;-71
2022/08/28 10:31:49;;;;;;;17.57;7.40;;;;;;;29.12;44.13;97588.75;5070489;28;20421;-70
2022/08/28 10:34:39;;;;;;;13.10;7.57;;;;;;;28.87;45.33;97590.25;5070465;28;20417;-70
2022/08/28 10:37:26;;;;;;;9.07;7.03;;;;;;;28.91;45.51;97593.25;5069586;28;20456;-70
2022/08/28 10:40:00;;;;;;;8.43;6.60;;;;;;;28.90;45.69;97591.63;5052306;28;20458;-72
2022/08/28 10:42:29;;;;;;;8.00;6.30;;;;;;;29.23;44.98;97595.00;5068280;28;20439;-70
2022/08/28 10:44:59;;;;;;;7.97;6.30;;;;;;;29.60;44.38;97591.34;5063867;28;20917;-71
2022/08/28 10:47:27;;;;;;;7.40;6.47;;;;;;;29.94;42.99;97587.34;5069015;28;20445;-71
2022/08/28 10:50:00;;;;;;;8.63;6.73;;;;;;;30.19;42.76;97584.69;5062733;28;20478;-70
2022/08/28 10:52:39;;;;;;;11.33;6.30;;;;;;;30.32;42.72;97579.81;5068707;28;20417;-70
2022/08/28 10:55:10;;;;;;;7.70;6.47;;;;;;;30.26;42.42;97594.41;5068933;28;20498;-70
2022/08/28 10:57:36;;;;;;;7.13;6.43;;;;;;;30.50;40.67;97584.63;5059428;28;20449;-70
2022/08/28 11:00:12;;;;;;;8.40;6.67;;;;;;;30.55;40.54;97580.34;5062784;28;20463;-71
2022/08/28 11:02:40;;;;;;;9.20;6.03;;;;;;;30.58;40.59;97580.59;5062268;28;20186;-70
2022/08/28 11:05:06;;;;;;;7.30;5.63;;;;;;;30.56;40.08;97579.25;5060402;28;20987;-72
2022/08/28 11:07:41;;;;;;;9.87;6.00;;;;;;;30.31;41.18;97586.28;5069290;28;20551;-69
2022/08/28 11:10:27;;;;;;;8.93;6.33;;;;;;;30.38;41.59;97586.81;5052690;28;20531;-71
2022/08/28 11:12:53;;;;;;;6.80;6.10;;;;;;;30.13;42.07;97591.16;5070395;28;20425;-70
2022/08/28 11:15:27;;;;;;;12.17;6.50;;;;;;;30.33;42.09;97593.03;5072259;28;20895;-71
2022/08/28 11:17:55;;;;;;;8.27;6.43;;;;;;;30.53;41.60;97596.00;5072949;28;20198;-70
2022/08/28 11:20:23;;;;;;;8.17;6.70;;;;;;;30.77;41.16;97591.63;5069645;28;20452;-70
2022/08/28 11:22:55;;;;;;;7.07;5.77;;;;;;;30.97;40.09;97595.38;5066953;28;20435;-70
2022/08/28 11:25:24;;;;;;;7.93;5.43;;;;;;;31.13;39.01;97587.25;5073703;28;20432;-69
2022/08/28 11:28:14;;;;;;;5.57;5.07;;;;;;;30.97;39.79;97598.09;5039677;28;20502;-71
2022/08/28 11:30:41;;;;;;;9.40;6.10;;;;;;;30.94;38.89;97590.50;5072120;28;20469;-71
2022/08/28 11:33:44;;;;;;;9.90;5.87;;;;;;;30.90;38.87;97592.13;5073307;28;20505;-70